Time;durP1;ratioP1;P1;durP2;ratioP2;P2;SDS_P1;SDS_P2;PMS_P1;PMS_P2;Temp;Humidity;BMP_temperature;BMP_pressure;BME280_temperature;BME280_humidity;BME280_pressure;Samples;Min_cycle;Max_cycle;Signal;HPM_P1;HPM_P2
2023/04/19 00:02:01;;;;;;;;;;;18.40;81.80;;;;;;6244595;23;20215;-75
2023/04/19 00:04:28;;;;;;;;;;;18.40;81.70;;;;;;6244494;23;19904;-76
2023/04/19 00:06:55;;;;;;;;;;;18.40;81.60;;;;;;6244088;22;19904;-76
2023/04/19 00:09:22;;;;;;;;;;;18.50;81.50;;;;;;6244336;23;19904;-76
2023/04/19 00:11:49;;;;;;;;;;;18.50;81.30;;;;;;6244496;23;19907;-76
2023/04/19 00:14:15;;;;;;;;;;;18.40;81.20;;;;;;6244201;23;19907;-76
2023/04/19 00:16:42;;;;;;;;;;;18.40;81.40;;;;;;6244349;22;19976;-76
2023/04/19 00:19:10;;;;;;;;;;;18.50;81.30;;;;;;6244855;23;19910;-75
2023/04/19 00:21:36;;;;;;;;;;;18.50;81.30;;;;;;6243824;23;19914;-75
2023/04/19 00:24:03;;;;;;;;;;;18.70;81.30;;;;;;6243451;23;19907;-76
2023/04/19 00:26:30;;;;;;;;;;;18.70;81.30;;;;;;6245740;22;20302;-75
2023/04/19 00:28:56;;;;;;;;;;;18.70;81.30;;;;;;6245763;23;19990;-75
2023/04/19 00:31:23;;;;;;;;;;;18.80;81.00;;;;;;6245387;23;19903;-75
2023/04/19 00:33:50;;;;;;;;;;;18.80;81.10;;;;;;6246155;23;19907;-76
2023/04/19 00:36:17;;;;;;;;;;;18.80;81.20;;;;;;6245585;22;20349;-75
2023/04/19 04:45:33;;;;;;;;;;;20.90;71.60;;;;;;6243534;22;19922;-75
2023/04/19 04:48:00;;;;;;;;;;;21.00;72.20;;;;;;6244446;22;19919;-76
2023/04/19 04:50:26;;;;;;;;;;;21.00;71.10;;;;;;6244777;23;20235;-76
2023/04/19 04:52:53;;;;;;;;;;;21.10;71.00;;;;;;6217754;23;19907;-75
2023/04/19 04:55:20;;;;;;;;;;;21.10;71.70;;;;;;6244631;23;19904;-77
2023/04/19 04:57:47;;;;;;;;;;;21.00;71.60;;;;;;6243635;22;19927;-72
2023/04/19 05:00:14;;;;;;;;;;;21.00;72.00;;;;;;6216483;23;19907;-73
2023/04/19 05:02:41;;;;;;;;;;;21.00;72.00;;;;;;6244392;23;19912;-75
2023/04/19 05:05:10;;;;;;;;;;;20.90;72.50;;;;;;6240881;23;19908;-77
2023/04/19 05:07:36;;;;;;;;;;;20.90;72.30;;;;;;6211208;23;19919;-77
2023/04/19 05:10:03;;;;;;;;;;;20.90;72.20;;;;;;6214223;23;19907;-78
2023/04/19 05:12:30;;;;;;;;;;;20.90;72.20;;;;;;6241082;23;19910;-79
2023/04/19 05:14:56;;;;;;;;;;;20.90;72.10;;;;;;6239750;23;19915;-80
2023/04/19 05:17:23;;;;;;;;;;;20.90;72.10;;;;;;6239762;22;20290;-79
2023/04/19 05:19:50;;;;;;;;;;;21.00;71.30;;;;;;6239746;23;19904;-80
2023/04/19 05:22:17;;;;;;;;;;;21.00;71.50;;;;;;6240360;23;19915;-78
2023/04/19 05:24:43;;;;;;;;;;;21.00;71.40;;;;;;6239852;23;19908;-78
2023/04/19 05:27:10;;;;;;;;;;;21.10;71.20;;;;;;6240623;22;19954;-78
2023/04/19 05:29:37;;;;;;;;;;;21.10;71.70;;;;;;6240274;23;20209;-80
2023/04/19 05:32:04;;;;;;;;;;;21.00;71.40;;;;;;6241369;23;19930;-77
2023/04/19 05:34:30;;;;;;;;;;;21.00;72.00;;;;;;6240492;23;19912;-77
2023/04/19 05:36:57;;;;;;;;;;;21.00;72.50;;;;;;6240515;22;19966;-76
2023/04/19 05:39:24;;;;;;;;;;;20.90;72.60;;;;;;6240269;23;19907;-77
2023/04/19 05:41:50;;;;;;;;;;;20.90;72.50;;;;;;6241091;23;19912;-73
2023/04/19 09:58:41;;;;;;;;;;;19.90;76.60;;;;;;6241067;22;19975;-75
2023/04/19 10:01:11;;;;;;;;;;;19.90;76.80;;;;;;6215720;23;20409;-77
2023/04/19 10:03:37;;;;;;;;;;;19.80;76.90;;;;;;6242752;23;19969;-77
2023/04/19 10:06:04;;;;;;;;;;;19.90;77.10;;;;;;6240152;23;19907;-78
2023/04/19 10:08:31;;;;;;;;;;;19.80;77.20;;;;;;6243316;23;19911;-76
2023/04/19 10:10:57;;;;;;;;;;;19.80;77.30;;;;;;6242225;23;19908;-76
2023/04/19 10:13:24;;;;;;;;;;;19.90;77.40;;;;;;6242448;23;19917;-77
2023/04/19 10:15:51;;;;;;;;;;;19.90;77.50;;;;;;6215509;23;19907;-75
2023/04/19 10:18:18;;;;;;;;;;;19.80;77.70;;;;;;6242802;23;20223;-73
2023/04/19 10:21:01;;;;;;;;;;;19.80;77.80;;;;;;6215686;23;19907;-73
2023/04/19 10:23:28;;;;;;;;;;;19.80;77.90;;;;;;6216364;23;19999;-75
2023/04/19 10:25:56;;;;;;;;;;;19.80;78.00;;;;;;6242667;23;19915;-81
2023/04/19 10:28:22;;;;;;;;;;;19.80;78.10;;;;;;6243415;23;19946;-86
2023/04/19 10:30:53;;;;;;;;;;;19.80;78.20;;;;;;6242992;23;20386;-77
2023/04/19 10:33:26;;;;;;;;;;;19.80;78.20;;;;;;6242983;23;19915;-80
2023/04/19 10:35:56;;;;;;;;;;;19.80;78.30;;;;;;6242421;23;19903;-78
2023/04/19 10:38:46;;;;;;;;;;;19.80;78.30;;;;;;6242645;23;19934;-77
2023/04/19 10:41:16;;;;;;;;;;;19.70;78.50;;;;;;6191200;23;19911;-76
2023/04/19 10:43:44;;;;;;;;;;;19.70;78.60;;;;;;6243100;23;19912;-75
2023/04/19 10:46:34;;;;;;;;;;;19.70;78.70;;;;;;6245262;23;19903;-75
2023/04/19 10:49:02;;;;;;;;;;;19.70;78.90;;;;;;6243092;23;20001;-73
2023/04/19 10:51:30;;;;;;;;;;;19.70;79.10;;;;;;6213571;23;19954;-72
2023/04/19 10:54:00;;;;;;;;;;;19.70;79.20;;;;;;6215114;23;19935;-74
2023/04/19 10:56:33;;;;;;;;;;;19.60;79.30;;;;;;6241194;23;19918;-78
2023/04/19 10:59:06;;;;;;;;;;;19.60;79.50;;;;;;6245275;23;19958;-74
2023/04/19 11:01:43;;;;;;;;;;;19.60;79.60;;;;;;6245056;23;20373;-75
2023/04/19 11:04:13;;;;;;;;;;;19.60;79.70;;;;;;6245183;23;19923;-72
2023/04/19 11:06:51;;;;;;;;;;;19.60;79.90;;;;;;6218139;23;20226;-74
2023/04/19 11:09:34;;;;;;;;;;;19.50;80.10;;;;;;6245073;23;19963;-73
2023/04/19 11:12:11;;;;;;;;;;;19.50;80.00;;;;;;6245524;23;19907;-74
2023/04/19 11:14:41;;;;;;;;;;;19.50;80.60;;;;;;6218474;23;19915;-74
2023/04/19 11:17:18;;;;;;;;;;;19.50;80.60;;;;;;6245078;23;19938;-74
2023/04/19 11:19:54;;;;;;;;;;;19.40;80.50;;;;;;6219113;23;20319;-73
2023/04/19 11:22:25;;;;;;;;;;;19.40;80.70;;;;;;6244496;23;19920;-73
2023/04/19 11:24:52;;;;;;;;;;;19.40;81.00;;;;;;6244537;23;19903;-73
2023/04/19 11:27:19;;;;;;;;;;;19.40;81.00;;;;;;6243959;23;19904;-74
2023/04/19 11:29:45;;;;;;;;;;;19.40;80.90;;;;;;6244043;23;19950;-74
2023/04/19 11:32:12;;;;;;;;;;;19.40;81.00;;;;;;6244646;23;19908;-74
2023/04/19 11:34:39;;;;;;;;;;;19.40;81.30;;;;;;6218590;23;19966;-72
2023/04/19 11:37:06;;;;;;;;;;;19.40;81.40;;;;;;6244765;23;19949;-74
2023/04/19 11:39:33;;;;;;;;;;;19.30;81.60;;;;;;6245205;23;19962;-76
2023/04/19 11:41:59;;;;;;;;;;;19.30;81.80;;;;;;6244864;23;19966;-75
2023/04/19 11:44:26;;;;;;;;;;;19.30;81.90;;;;;;6244448;23;19960;-73
2023/04/19 11:47:03;;;;;;;;;;;19.30;82.10;;;;;;6244457;23;20034;-74
2023/04/19 11:49:31;;;;;;;;;;;19.20;82.20;;;;;;6245217;23;19907;-74
2023/04/19 11:52:01;;;;;;;;;;;19.20;82.40;;;;;;6244329;23;19912;-75
2023/04/19 11:54:28;;;;;;;;;;;19.20;82.40;;;;;;6244288;23;19979;-73
2023/04/19 11:56:58;;;;;;;;;;;19.10;82.50;;;;;;6217968;22;19907;-73
2023/04/19 11:59:25;;;;;;;;;;;19.10;82.60;;;;;;6244914;23;19903;-74
2023/04/19 12:01:51;;;;;;;;;;;19.10;82.70;;;;;;6217721;23;19907;-72
2023/04/19 12:04:19;;;;;;;;;;;19.00;82.80;;;;;;6244277;23;19918;-75
2023/04/19 12:06:53;;;;;;;;;;;19.10;82.90;;;;;;6218142;23;20310;-74
2023/04/19 12:09:21;;;;;;;;;;;19.00;83.00;;;;;;6218037;23;19904;-74
2023/04/19 12:11:48;;;;;;;;;;;19.00;83.00;;;;;;6244846;23;19903;-73
2023/04/19 12:14:17;;;;;;;;;;;19.00;83.10;;;;;;6244175;23;19903;-74
2023/04/19 12:16:46;;;;;;;;;;;19.00;83.00;;;;;;6244663;22;19918;-73
2023/04/19 12:19:13;;;;;;;;;;;19.00;83.10;;;;;;6244476;23;19911;-73
2023/04/19 12:21:40;;;;;;;;;;;18.90;83.10;;;;;;6243995;23;19908;-72
2023/04/19 12:24:07;;;;;;;;;;;18.90;83.20;;;;;;6244503;23;19916;-74
2023/04/19 12:26:34;;;;;;;;;;;18.90;83.30;;;;;;6244354;22;19903;-74
2023/04/19 12:29:01;;;;;;;;;;;19.00;83.30;;;;;;6244534;23;19935;-75
2023/04/19 12:31:28;;;;;;;;;;;18.90;83.40;;;;;;6244453;23;19930;-74
2023/04/19 12:33:54;;;;;;;;;;;18.90;83.40;;;;;;6244305;23;20338;-75
2023/04/19 12:36:21;;;;;;;;;;;18.90;83.60;;;;;;6243667;22;19910;-77
2023/04/19 12:38:48;;;;;;;;;;;18.90;83.70;;;;;;6243919;23;19903;-74
2023/04/19 12:41:15;;;;;;;;;;;18.80;83.80;;;;;;6245232;23;19942;-72
2023/04/19 12:43:41;;;;;;;;;;;18.80;83.90;;;;;;6244675;23;19922;-71
2023/04/19 12:46:08;;;;;;;;;;;18.80;83.90;;;;;;6244493;22;20319;-74
2023/04/19 12:48:35;;;;;;;;;;;18.80;83.90;;;;;;6243861;23;19911;-74
2023/04/19 12:51:02;;;;;;;;;;;18.80;83.90;;;;;;6244816;23;19923;-74
2023/04/19 12:53:29;;;;;;;;;;;18.80;83.80;;;;;;6243768;23;19934;-76
2023/04/19 12:55:55;;;;;;;;;;;18.90;83.80;;;;;;6244594;23;19904;-80
2023/04/19 12:58:22;;;;;;;;;;;18.80;83.70;;;;;;6244682;22;19993;-79
2023/04/19 13:00:49;;;;;;;;;;;18.90;83.50;;;;;;6244802;23;19911;-79
2023/04/19 13:03:15;;;;;;;;;;;19.00;83.60;;;;;;6245078;23;20225;-76
2023/04/19 13:05:42;;;;;;;;;;;18.90;83.50;;;;;;6244768;23;19935;-76
2023/04/19 13:08:09;;;;;;;;;;;19.00;83.60;;;;;;6244847;22;19982;-75
2023/04/19 13:10:36;;;;;;;;;;;19.00;83.80;;;;;;6244386;23;19911;-75
2023/04/19 13:13:02;;;;;;;;;;;19.00;83.40;;;;;;6244898;23;19907;-75
2023/04/19 13:53:27;;;;;;;;;;;19.10;83.20;;;;;;6273100;22;19958;-75
2023/04/19 13:55:54;;;;;;;;;;;19.10;83.20;;;;;;6246521;23;19927;-75
2023/04/19 13:58:23;;;;;;;;;;;19.10;83.30;;;;;;6246690;22;19914;-75
2023/04/19 14:00:50;;;;;;;;;;;19.10;83.40;;;;;;6246599;23;19903;-74
2023/04/19 14:03:17;;;;;;;;;;;19.10;83.20;;;;;;6245919;23;20314;-74
2023/04/19 14:05:44;;;;;;;;;;;19.10;83.00;;;;;;6246334;23;19904;-75
2023/04/19 14:08:11;;;;;;;;;;;19.10;82.90;;;;;;6246153;22;19907;-75
2023/04/19 14:10:38;;;;;;;;;;;19.10;82.80;;;;;;6245863;23;19973;-75
2023/04/19 14:13:05;;;;;;;;;;;19.10;82.70;;;;;;6220359;23;19907;-75
2023/04/19 14:15:32;;;;;;;;;;;19.10;83.10;;;;;;6246255;23;19935;-75
2023/04/19 14:17:59;;;;;;;;;;;19.00;82.90;;;;;;6245594;22;19904;-75
2023/04/19 14:20:26;;;;;;;;;;;19.10;83.00;;;;;;6245322;23;19908;-75
2023/04/19 14:22:55;;;;;;;;;;;19.10;83.20;;;;;;6219143;23;20235;-75
2023/04/19 14:25:21;;;;;;;;;;;19.00;82.70;;;;;;6246807;23;19904;-75
2023/04/19 14:27:48;;;;;;;;;;;19.10;82.70;;;;;;6246054;22;19919;-75
2023/04/19 14:30:15;;;;;;;;;;;19.10;82.70;;;;;;6245821;23;20381;-75
2023/04/19 14:32:42;;;;;;;;;;;19.10;82.60;;;;;;6245837;23;19904;-75
2023/04/19 14:35:10;;;;;;;;;;;19.20;82.70;;;;;;6245970;23;19903;-76
2023/04/19 14:37:37;;;;;;;;;;;19.10;83.00;;;;;;6246068;22;19939;-75
2023/04/19 14:40:04;;;;;;;;;;;19.20;83.20;;;;;;6246072;23;19904;-75
2023/04/19 14:42:30;;;;;;;;;;;19.20;83.50;;;;;;6246317;23;19907;-75
2023/04/19 14:44:57;;;;;;;;;;;19.30;84.30;;;;;;6246225;23;19978;-75
2023/04/19 14:47:24;;;;;;;;;;;19.20;85.00;;;;;;6219607;23;19904;-74
2023/04/19 14:49:51;;;;;;;;;;;19.20;85.60;;;;;;6246188;23;19904;-75
2023/04/19 14:52:18;;;;;;;;;;;19.20;85.90;;;;;;6245101;23;20367;-75
2023/04/19 14:54:44;;;;;;;;;;;19.20;86.10;;;;;;6245815;22;19943;-75
2023/04/19 14:57:12;;;;;;;;;;;19.20;86.40;;;;;;6246112;22;19904;-75
2023/04/19 14:59:38;;;;;;;;;;;19.20;86.40;;;;;;6245781;23;19903;-75
2023/04/19 15:02:05;;;;;;;;;;;19.20;86.80;;;;;;6245684;23;20326;-74
2023/04/19 15:04:35;;;;;;;;;;;19.10;87.00;;;;;;6245623;23;19912;-75
2023/04/19 15:07:02;;;;;;;;;;;19.10;87.20;;;;;;6219224;23;19904;-74
2023/04/19 15:09:29;;;;;;;;;;;19.10;87.20;;;;;;6219210;23;20246;-75
2023/04/19 15:11:56;;;;;;;;;;;19.10;87.30;;;;;;6218789;23;19908;-75
2023/04/19 15:14:23;;;;;;;;;;;19.10;87.30;;;;;;6245145;23;19911;-75
2023/04/19 15:16:49;;;;;;;;;;;19.10;87.60;;;;;;6245653;22;19907;-75
2023/04/19 15:19:16;;;;;;;;;;;19.10;87.60;;;;;;6246124;23;19911;-75
2023/04/19 15:21:43;;;;;;;;;;;19.10;87.90;;;;;;6245752;23;19970;-75
2023/04/19 15:24:10;;;;;;;;;;;19.10;87.90;;;;;;6245990;23;19912;-76
2023/04/19 15:26:37;;;;;;;;;;;19.10;88.10;;;;;;6245879;22;19977;-74
2023/04/19 15:29:04;;;;;;;;;;;19.20;88.10;;;;;;6245679;23;19908;-75
2023/04/19 15:31:31;;;;;;;;;;;19.10;88.20;;;;;;6244795;23;19915;-74
2023/04/19 15:34:01;;;;;;;;;;;19.20;88.50;;;;;;6245409;23;19903;-75
2023/04/19 15:36:28;;;;;;;;;;;19.20;88.90;;;;;;6245501;22;19982;-74
2023/04/19 15:38:55;;;;;;;;;;;19.10;89.10;;;;;;6245477;23;19978;-75
2023/04/19 15:41:22;;;;;;;;;;;19.10;89.30;;;;;;6245503;23;20221;-75
2023/04/19 15:43:49;;;;;;;;;;;19.00;89.30;;;;;;6244770;23;19912;-74
2023/04/19 15:46:16;;;;;;;;;;;18.90;89.00;;;;;;6245605;22;19934;-74
2023/04/19 15:48:43;;;;;;;;;;;18.80;88.60;;;;;;6245542;23;19904;-74
2023/04/19 15:51:10;;;;;;;;;;;18.80;88.00;;;;;;6245040;23;19903;-74
2023/04/19 15:53:37;;;;;;;;;;;18.80;88.30;;;;;;6244438;22;19904;-74
2023/04/19 15:56:04;;;;;;;;;;;18.80;88.20;;;;;;6218677;22;19935;-74
2023/04/19 15:58:30;;;;;;;;;;;18.80;88.50;;;;;;6246032;23;20357;-75
2023/04/19 16:00:57;;;;;;;;;;;18.80;88.60;;;;;;6245455;23;19904;-75
2023/04/19 16:03:24;;;;;;;;;;;18.80;88.80;;;;;;6245977;23;19958;-74
2023/04/19 16:05:51;;;;;;;;;;;18.80;89.00;;;;;;6246119;23;19987;-74
2023/04/19 16:08:20;;;;;;;;;;;18.80;89.30;;;;;;6244551;22;19953;-75
2023/04/19 16:10:47;;;;;;;;;;;18.80;89.60;;;;;;6245113;23;19904;-75
2023/04/19 16:13:14;;;;;;;;;;;18.80;89.80;;;;;;6218562;23;19914;-75
2023/04/19 16:15:41;;;;;;;;;;;18.80;89.90;;;;;;6245460;23;19911;-75
2023/04/19 16:18:08;;;;;;;;;;;18.80;89.90;;;;;;6218464;23;19908;-75
2023/04/19 16:29:28;;;;;;;;;;;18.90;89.30;;;;;;6257980;22;19963;-72
2023/04/19 16:31:54;;;;;;;;;;;18.90;88.50;;;;;;6245163;23;19912;-75
2023/04/19 16:34:24;;;;;;;;;;;19.00;88.40;;;;;;6245208;23;19983;-75
2023/04/19 16:36:53;;;;;;;;;;;19.00;88.10;;;;;;6245223;22;19908;-75
2023/04/19 16:39:20;;;;;;;;;;;19.00;87.80;;;;;;6244758;23;19914;-76
2023/04/19 16:41:47;;;;;;;;;;;19.00;87.40;;;;;;6244172;23;19903;-76
2023/04/19 16:44:13;;;;;;;;;;;19.00;87.30;;;;;;6244508;23;19919;-74
2023/04/19 16:46:41;;;;;;;;;;;19.00;88.10;;;;;;6217874;23;19904;-75
2023/04/19 16:49:07;;;;;;;;;;;18.90;88.60;;;;;;6244918;23;19974;-75
2023/04/19 16:51:34;;;;;;;;;;;18.80;88.90;;;;;;6245363;23;19904;-75
2023/04/19 16:54:01;;;;;;;;;;;18.80;89.30;;;;;;6218576;23;19910;-74
2023/04/19 16:56:28;;;;;;;;;;;18.70;89.10;;;;;;6245082;22;19908;-75
2023/04/19 16:58:55;;;;;;;;;;;18.70;89.30;;;;;;6245301;23;19933;-76
2023/04/19 17:01:22;;;;;;;;;;;18.80;88.80;;;;;;6245041;23;20474;-75
2023/04/19 17:03:49;;;;;;;;;;;18.80;89.10;;;;;;6244921;23;19911;-76
2023/04/19 17:06:16;;;;;;;;;;;18.80;88.40;;;;;;6244798;22;19927;-74
2023/04/19 17:08:42;;;;;;;;;;;18.80;87.40;;;;;;6244800;23;20267;-75
2023/04/19 17:11:09;;;;;;;;;;;18.80;86.40;;;;;;6245032;23;19979;-75
2023/04/19 17:13:36;;;;;;;;;;;18.90;86.30;;;;;;6244130;23;19910;-75
2023/04/19 17:16:03;;;;;;;;;;;18.90;85.90;;;;;;6244819;22;19984;-75
2023/04/19 17:18:30;;;;;;;;;;;18.90;86.20;;;;;;6245116;23;19903;-74
2023/04/19 17:20:57;;;;;;;;;;;19.00;85.50;;;;;;6244697;23;19911;-75
2023/04/19 17:23:23;;;;;;;;;;;19.00;85.70;;;;;;6244730;23;20246;-76
2023/04/19 17:25:50;;;;;;;;;;;19.00;85.50;;;;;;6244528;23;19907;-75
2023/04/19 17:28:17;;;;;;;;;;;19.00;86.50;;;;;;6244829;22;19966;-72
2023/04/19 17:30:44;;;;;;;;;;;19.00;87.60;;;;;;6244797;23;19912;-80
2023/04/19 17:33:10;;;;;;;;;;;18.80;88.70;;;;;;6245209;23;19954;-76
2023/04/19 17:35:37;;;;;;;;;;;18.70;90.40;;;;;;6244884;23;19979;-77
2023/04/19 17:38:04;;;;;;;;;;;18.40;91.70;;;;;;6244261;22;19903;-69
2023/04/19 17:40:31;;;;;;;;;;;18.20;92.60;;;;;;6245026;23;19930;-77
2023/04/19 17:42:57;;;;;;;;;;;18.10;93.20;;;;;;6244382;23;19912;-78
2023/04/19 17:45:25;;;;;;;;;;;18.00;93.70;;;;;;6244729;23;19954;-80
2023/04/19 17:47:52;;;;;;;;;;;17.90;93.80;;;;;;6244167;22;19915;-78
2023/04/19 17:50:18;;;;;;;;;;;17.90;94.10;;;;;;6244423;23;20347;-77
2023/04/19 17:52:45;;;;;;;;;;;17.90;94.20;;;;;;6244876;23;19910;-80
2023/04/19 17:55:13;;;;;;;;;;;17.80;94.00;;;;;;6244239;23;19903;-78
2023/04/19 17:57:40;;;;;;;;;;;17.80;94.10;;;;;;6244522;22;20397;-79
2023/04/19 18:00:09;;;;;;;;;;;17.80;94.10;;;;;;6244570;23;19939;-77
2023/04/19 18:02:36;;;;;;;;;;;17.80;94.00;;;;;;6244193;23;19922;-79
2023/04/19 18:05:03;;;;;;;;;;;17.70;93.70;;;;;;6244458;23;19904;-78
2023/04/19 18:07:29;;;;;;;;;;;17.80;93.70;;;;;;6244555;22;19927;-78
2023/04/19 18:09:56;;;;;;;;;;;17.80;93.10;;;;;;6246338;23;19915;-77
2023/04/19 18:12:23;;;;;;;;;;;17.70;93.00;;;;;;6246400;23;19931;-77
2023/04/19 18:14:50;;;;;;;;;;;17.70;92.90;;;;;;6246297;23;19993;-78
2023/04/19 18:17:16;;;;;;;;;;;17.70;92.50;;;;;;6245851;22;19914;-79
2023/04/19 18:19:43;;;;;;;;;;;17.80;92.20;;;;;;6245632;23;20275;-77
2023/04/19 18:22:10;;;;;;;;;;;17.90;90.90;;;;;;6246230;23;19935;-77
2023/04/19 18:24:36;;;;;;;;;;;18.00;90.40;;;;;;6245922;23;19962;-77
2023/04/19 18:27:03;;;;;;;;;;;18.10;90.40;;;;;;6219516;23;19987;-77
2023/04/19 18:29:30;;;;;;;;;;;18.20;90.50;;;;;;6260560;22;19922;-77
2023/04/19 18:31:56;;;;;;;;;;;18.10;89.50;;;;;;6276526;22;19914;-79
2023/04/19 18:34:23;;;;;;;;;;;18.20;88.70;;;;;;6276478;22;19907;-78
2023/04/19 18:36:54;;;;;;;;;;;18.20;88.40;;;;;;6277071;22;20336;-77
2023/04/19 18:39:20;;;;;;;;;;;18.20;87.40;;;;;;6276712;22;19978;-76
2023/04/19 18:41:47;;;;;;;;;;;18.20;87.40;;;;;;6276774;22;19903;-74
2023/04/19 18:44:14;;;;;;;;;;;18.20;87.80;;;;;;6276281;22;19972;-79
2023/04/19 18:46:40;;;;;;;;;;;18.30;86.90;;;;;;6274396;22;20318;-78
2023/04/19 18:49:07;;;;;;;;;;;18.30;86.80;;;;;;6276320;22;19968;-77
2023/04/19 18:51:35;;;;;;;;;;;18.30;87.30;;;;;;6276484;22;20227;-76
2023/04/19 18:54:02;;;;;;;;;;;18.30;87.00;;;;;;6276138;22;19976;-76
2023/04/19 18:56:28;;;;;;;;;;;18.30;87.30;;;;;;6275252;22;20040;-77
2023/04/19 18:58:56;;;;;;;;;;;18.30;87.70;;;;;;6275777;22;19903;-77
2023/04/19 19:01:23;;;;;;;;;;;18.30;87.40;;;;;;6275991;22;20266;-77
2023/04/19 19:03:49;;;;;;;;;;;18.30;87.20;;;;;;6275878;22;20025;-78
2023/04/19 19:06:16;;;;;;;;;;;18.30;87.40;;;;;;6248461;22;19908;-78
2023/04/19 19:08:43;;;;;;;;;;;18.30;88.10;;;;;;6275562;22;19899;-77
2023/04/19 19:11:09;;;;;;;;;;;18.30;87.60;;;;;;6275886;22;19903;-78
2023/04/19 19:13:36;;;;;;;;;;;18.30;88.10;;;;;;6276150;22;19982;-78
2023/04/19 19:16:04;;;;;;;;;;;18.30;87.90;;;;;;6276471;22;19986;-76
2023/04/19 19:18:31;;;;;;;;;;;18.30;88.20;;;;;;6275219;22;19972;-77
2023/04/19 19:21:01;;;;;;;;;;;18.30;88.10;;;;;;6276304;22;19982;-77
2023/04/19 19:23:27;;;;;;;;;;;18.20;88.40;;;;;;6276556;22;19911;-76
2023/04/19 19:25:55;;;;;;;;;;;18.30;88.60;;;;;;6276008;22;19907;-76
2023/04/19 19:28:22;;;;;;;;;;;18.20;88.40;;;;;;6275905;22;19910;-75
2023/04/19 19:30:49;;;;;;;;;;;18.20;88.60;;;;;;6276682;22;20219;-75
2023/04/19 19:33:16;;;;;;;;;;;18.20;89.10;;;;;;6275976;22;19946;-79
2023/04/19 19:35:43;;;;;;;;;;;18.00;89.20;;;;;;6276588;22;19981;-80
2023/04/19 19:38:10;;;;;;;;;;;18.00;89.10;;;;;;6276401;22;20241;-77
2023/04/19 19:40:37;;;;;;;;;;;18.00;88.70;;;;;;6276941;22;19927;-76
2023/04/19 19:43:04;;;;;;;;;;;17.80;88.30;;;;;;6275496;22;19917;-77
2023/04/19 19:45:30;;;;;;;;;;;17.80;87.40;;;;;;6276263;22;19917;-78
2023/04/19 19:48:00;;;;;;;;;;;17.90;86.90;;;;;;6276134;22;19957;-77
2023/04/19 19:50:28;;;;;;;;;;;18.00;86.50;;;;;;6276305;22;20001;-76
2023/04/19 19:52:54;;;;;;;;;;;18.00;86.30;;;;;;6276336;22;19974;-76
2023/04/19 19:55:21;;;;;;;;;;;18.00;86.40;;;;;;6276048;22;19990;-77
2023/04/19 19:57:48;;;;;;;;;;;18.10;86.30;;;;;;6276295;22;19910;-78
2023/04/19 20:00:16;;;;;;;;;;;18.10;85.60;;;;;;6276813;22;19904;-75
2023/04/19 20:02:43;;;;;;;;;;;18.20;85.60;;;;;;6276544;22;19911;-77
2023/04/19 20:05:10;;;;;;;;;;;18.30;85.40;;;;;;6276782;22;19935;-76
2023/04/19 20:07:37;;;;;;;;;;;18.30;85.50;;;;;;6275837;22;19903;-78
2023/04/19 20:10:13;;;;;;;;;;;18.30;84.40;;;;;;6276729;22;19903;-77
2023/04/19 20:12:43;;;;;;;;;;;18.40;84.60;;;;;;6276290;22;19915;-77
2023/04/19 20:15:12;;;;;;;;;;;18.40;84.00;;;;;;6276136;22;19995;-75
2023/04/19 20:17:39;;;;;;;;;;;18.40;83.50;;;;;;6274940;22;19903;-76
2023/04/19 20:20:10;;;;;;;;;;;18.40;84.20;;;;;;6249028;22;19903;-77
2023/04/19 20:22:37;;;;;;;;;;;18.40;82.80;;;;;;6275500;22;19918;-75
2023/04/19 20:25:04;;;;;;;;;;;18.50;82.40;;;;;;6277045;22;19982;-76
2023/04/19 20:27:31;;;;;;;;;;;18.60;81.90;;;;;;6276972;22;19908;-74
2023/04/19 20:29:59;;;;;;;;;;;18.70;81.30;;;;;;6276474;22;19992;-79
2023/04/19 20:32:26;;;;;;;;;;;18.70;81.30;;;;;;6276131;22;19968;-78
2023/04/19 20:34:52;;;;;;;;;;;18.80;81.00;;;;;;6248706;22;20323;-78
2023/04/19 20:37:22;;;;;;;;;;;18.80;80.90;;;;;;6275763;22;19910;-75
2023/04/19 20:39:49;;;;;;;;;;;18.80;80.10;;;;;;6276067;22;19908;-75
2023/04/19 20:42:15;;;;;;;;;;;18.80;80.50;;;;;;6275830;22;19909;-76
2023/04/19 20:44:42;;;;;;;;;;;18.80;80.60;;;;;;6275819;22;19903;-75
2023/04/19 20:47:09;;;;;;;;;;;18.80;80.80;;;;;;6275503;22;20284;-77
2023/04/19 20:49:35;;;;;;;;;;;18.80;82.10;;;;;;6275896;22;19907;-75
2023/04/19 20:52:02;;;;;;;;;;;18.80;81.10;;;;;;6276004;22;20289;-75
2023/04/19 20:54:29;;;;;;;;;;;18.70;81.90;;;;;;6275140;22;19982;-76
2023/04/19 20:56:59;;;;;;;;;;;18.70;82.30;;;;;;6275560;22;19907;-75
2023/04/19 20:59:26;;;;;;;;;;;18.60;82.50;;;;;;6275498;22;19908;-76
2023/04/19 21:01:53;;;;;;;;;;;18.50;81.00;;;;;;6275789;22;19903;-76
2023/04/19 21:04:19;;;;;;;;;;;18.50;81.80;;;;;;6275856;22;19994;-74
2023/04/19 21:06:46;;;;;;;;;;;18.50;81.70;;;;;;6274930;22;19972;-76
2023/04/19 21:09:13;;;;;;;;;;;18.50;80.60;;;;;;6274723;22;20306;-77
2023/04/19 21:11:39;;;;;;;;;;;18.60;80.60;;;;;;6247766;22;19982;-76
2023/04/19 21:14:06;;;;;;;;;;;18.60;81.50;;;;;;6275594;22;20741;-76
2023/04/19 21:16:33;;;;;;;;;;;18.60;81.20;;;;;;6274999;22;19942;-75
2023/04/19 21:19:00;;;;;;;;;;;18.60;80.80;;;;;;6274771;22;19907;-76
2023/04/19 21:21:26;;;;;;;;;;;18.70;82.40;;;;;;6274934;22;19951;-76
2023/04/19 21:23:53;;;;;;;;;;;18.70;81.10;;;;;;6275227;22;19945;-77
2023/04/19 21:26:20;;;;;;;;;;;18.70;81.00;;;;;;6275183;22;20368;-77
2023/04/19 21:28:47;;;;;;;;;;;18.70;80.40;;;;;;6274362;22;19915;-76
2023/04/19 21:31:14;;;;;;;;;;;18.70;80.40;;;;;;6275741;22;19907;-76
2023/04/19 21:33:41;;;;;;;;;;;18.70;80.30;;;;;;6276037;22;19968;-76
2023/04/19 21:36:07;;;;;;;;;;;18.70;80.20;;;;;;6275396;22;19930;-76
2023/04/19 21:38:34;;;;;;;;;;;18.80;79.60;;;;;;6222962;22;19903;-76
2023/04/19 21:41:01;;;;;;;;;;;18.80;79.80;;;;;;6248277;22;19903;-76
2023/04/19 21:43:30;;;;;;;;;;;18.80;78.10;;;;;;6276966;22;19918;-77
2023/04/19 21:45:57;;;;;;;;;;;18.80;78.20;;;;;;6277290;22;19984;-77
2023/04/19 21:48:23;;;;;;;;;;;18.80;78.10;;;;;;6277170;22;19923;-74
2023/04/19 21:50:50;;;;;;;;;;;18.80;78.70;;;;;;6277846;22;19934;-76
2023/04/19 21:53:17;;;;;;;;;;;18.90;77.20;;;;;;6277774;22;20014;-76
2023/04/19 21:55:43;;;;;;;;;;;19.00;77.40;;;;;;6277880;22;19942;-74
2023/04/19 21:58:10;;;;;;;;;;;19.00;76.60;;;;;;6276812;22;19956;-75
2023/04/19 22:00:37;;;;;;;;;;;19.10;77.20;;;;;;6276891;22;19907;-77
2023/04/19 22:03:03;;;;;;;;;;;19.10;76.90;;;;;;6277451;22;19923;-75
